MRPVMRLM

Guest
Details From MRPV - TOBIAS BOLANOS INTL
To MRLM - LIMON INTL
Flight Number -
Tags decoded
Created
Modified
Stats Distance 72 nm / 132 km
Max Altitude 0 ft / 0 m
Waypoints 5
Social Downloads 0
Likes 0
Share VATSIM

Download

Looking for another format? Having issues loading an existing format? Contact us
Advertisement - Login to hide

Notes

Requested: MRPV G440 PARAI CLARA B690 LIO MRLM Unmatched points: G440

Route

MRPV PARAI CLARA B690 LIO MRLM

ID Type Via Altitude (ft/m) Position (lat/lon) Dist (leg/tot) Name
O MRPV APT - 0 / 0 9.95705 / -84.13980 - / 0 nm TOBIAS BOLANOS INTL
PARAI FIX - 0 / 0 9.84667 / -83.83667 19 / 19 nm
CLARA FIX - 0 / 0 9.97544 / -83.72392 10 / 29 nm
LIO NDB B690 (AWY-LO) 0 / 0 9.97667 / -83.03278 40 / 70 nm LIMON NDB
O MRLM APT - 0 / 0 9.95796 / -83.02201 1 / 71 nm LIMON INTL

Altitude Profile

Advertisement - Login to hide

MRPV

Details ICAO MRPV (SYQ)
Name TOBIAS BOLANOS INTL
Region Costa Rica
Timezone America/Costa_Rica (UTC-6.0)
Stats Elevation 3,287 ft / 1,002 m (AMSL)
Location 9.957050° -84.139800°
Runways 1
Magnetic Variation 1.876° W

METAR

MRPV 201200Z 16004KT 9999 FEW040 SCT140 BKN200 20/16 A3000 NOSIG

Decode

TAF

TAF MRPV 200600Z 2006/2106 06008KT 9999 FEW030 TX27/2018Z TN18/2009Z BECMG 2016/2018 27012KT SCT025 TEMPO 2020/2023 SHRA SCT015TCU

Decode

Departure Runways

ID Width Length Bearing (true/mag) Surface Threshold Overrun Markings Lighting
09 60 ft / 18 m 5,304 ft / 1,617 m 95.09° / 96.97° ASPHALT 200 ft / 61 m 0 ft / 0 m APP
27 60 ft / 18 m 5,304 ft / 1,617 m 275.10° / 276.97° ASPHALT 0 ft / 0 m 0 ft / 0 m APP

MRLM

Details ICAO MRLM (LIO)
Name Limon Int'l
Region Costa Rica
Timezone Unknown
Stats Elevation 7 ft / 2 m (AMSL)
Location 9.957960° -83.022000°
Runways 1
Magnetic Variation 2.547° W

METAR

Not found

TAF

TAF MRLM 200600Z 2006/2106 03008KT 9999 FEW040 TX32/2019Z TN22/2011Z TEMPO 2006/2016 25007KT

Decode

Destination Runways

ID Width Length Bearing (true/mag) Surface Threshold Overrun Markings Lighting
14 98 ft / 30 m 5,911 ft / 1,802 m 146.50° / 149.05° ASPHALT 0 ft / 0 m 0 ft / 0 m VISUAL EDGE THRESHOLD
32 98 ft / 30 m 5,911 ft / 1,802 m 326.50° / 329.05° ASPHALT 0 ft / 0 m 0 ft / 0 m VISUAL EDGE THRESHOLD

Popular Alternatives